createdAt,value
2022-10-16T00:01:46.440Z,5.55
2022-10-16T00:04:15.213Z,5.03
2022-10-16T00:06:44.065Z,3.22
2022-10-16T00:09:12.423Z,2.38
2022-10-16T00:11:42.223Z,4.18
2022-10-16T00:14:14.663Z,3.95
2022-10-16T00:16:43.790Z,2.72
2022-10-16T00:19:13.238Z,2.22
2022-10-16T00:21:43.511Z,2.25
2022-10-16T00:24:30.788Z,4.60
2022-10-16T00:26:59.529Z,2.22
2022-10-16T00:29:29.540Z,6.03
2022-10-16T00:31:59.700Z,2.38
2022-10-16T00:34:27.952Z,2.88
2022-10-16T00:36:56.543Z,3.35
2022-10-16T00:39:26.209Z,1.60
2022-10-16T00:41:54.521Z,6.80
2022-10-16T00:44:51.920Z,2.25
2022-10-16T00:47:24.689Z,2.72
2022-10-16T00:49:57.938Z,2.45
2022-10-16T00:52:26.610Z,10.82
2022-10-16T00:54:56.822Z,18.08
2022-10-16T00:57:25.871Z,17.23
2022-10-16T00:59:56.655Z,11.90
2022-10-16T01:02:25.068Z,6.93
2022-10-16T01:04:55.613Z,5.95
2022-10-16T01:07:34.456Z,3.13
2022-10-16T01:10:11.842Z,3.40
2022-10-16T01:12:47.823Z,4.07
2022-10-16T01:15:25.818Z,3.95
2022-10-16T01:17:59.271Z,2.15
2022-10-16T01:20:32.192Z,4.13
2022-10-16T01:23:23.688Z,2.40
2022-10-16T01:26:03.635Z,2.10
2022-10-16T01:28:40.773Z,3.83
2022-10-16T01:31:13.749Z,3.47
2022-10-16T01:33:45.921Z,3.70
2022-10-16T01:36:17.676Z,3.05
2022-10-16T01:38:48.498Z,3.47
2022-10-16T01:41:19.743Z,2.40
2022-10-16T01:43:55.192Z,6.03
2022-10-16T01:46:25.759Z,3.03
2022-10-16T01:48:55.287Z,5.63
2022-10-16T01:51:25.348Z,2.35
2022-10-16T01:53:56.488Z,1.83
2022-10-16T01:56:26.928Z,2.00
2022-10-16T01:59:00.920Z,4.97
2022-10-16T02:01:32.820Z,2.63
2022-10-16T02:04:06.330Z,2.65
2022-10-16T02:06:35.907Z,2.60
2022-10-16T02:09:04.524Z,1.63
2022-10-16T02:11:32.756Z,2.85
2022-10-16T02:14:06.919Z,3.13
2022-10-16T02:16:36.796Z,3.35
2022-10-16T02:19:07.210Z,1.92
2022-10-16T02:21:43.216Z,4.38
2022-10-16T02:24:19.974Z,2.33
2022-10-16T02:26:53.747Z,2.60
2022-10-16T02:29:27.923Z,1.70
2022-10-16T02:32:01.220Z,3.10
2022-10-16T02:34:31.631Z,3.53
2022-10-16T02:37:01.060Z,4.13
2022-10-16T02:39:30.930Z,2.83
2022-10-16T02:41:59.290Z,3.70
2022-10-16T02:44:29.167Z,2.15
2022-10-16T02:46:57.407Z,3.85
2022-10-16T02:49:26.091Z,3.53
2022-10-16T02:51:54.305Z,1.75
2022-10-16T02:54:23.200Z,2.33
2022-10-16T02:56:51.529Z,3.38
2022-10-16T02:59:20.326Z,3.60
2022-10-16T03:01:50.122Z,2.60
2022-10-16T03:04:18.654Z,3.10
2022-10-16T03:06:47.140Z,2.55
2022-10-16T03:09:15.419Z,3.35
2022-10-16T03:11:44.241Z,2.65
2022-10-16T03:14:12.456Z,2.50
2022-10-16T03:16:41.340Z,2.53
2022-10-16T03:19:10.980Z,3.25
2022-10-16T03:21:39.941Z,2.05
2022-10-16T03:24:08.254Z,3.45
2022-10-16T03:26:37.247Z,2.08
2022-10-16T03:29:06.346Z,2.45
2022-10-16T03:31:35.440Z,2.92
2022-10-16T03:34:03.891Z,2.10
2022-10-16T03:36:34.147Z,1.88
2022-10-16T03:39:02.427Z,1.80
2022-10-16T03:41:30.680Z,2.50
2022-10-16T03:43:59.515Z,3.03
2022-10-16T03:46:28.028Z,1.83
2022-10-16T03:48:56.824Z,2.83
2022-10-16T03:51:25.137Z,1.90
2022-10-16T03:53:55.308Z,2.33
2022-10-16T03:56:23.663Z,1.92
2022-10-16T03:58:52.511Z,2.35
2022-10-16T04:01:20.790Z,2.55
2022-10-16T04:03:49.543Z,3.50
2022-10-16T04:06:17.800Z,3.35
2022-10-16T04:08:47.252Z,1.63
2022-10-16T04:11:16.888Z,3.63
2022-10-16T04:13:45.348Z,2.40
2022-10-16T04:16:14.080Z,2.30
2022-10-16T04:18:42.416Z,2.38
2022-10-16T04:21:11.113Z,2.60
2022-10-16T04:23:39.411Z,3.97
2022-10-16T04:26:08.257Z,4.00
2022-10-16T04:28:38.418Z,4.32
2022-10-16T04:31:07.645Z,2.72
2022-10-16T04:33:36.459Z,3.97
2022-10-16T04:36:05.661Z,1.70
2022-10-16T04:38:34.312Z,2.78
2022-10-16T04:41:02.590Z,3.33
2022-10-16T04:43:31.536Z,2.60
2022-10-16T04:46:01.142Z,3.00
2022-10-16T04:48:29.845Z,3.40
2022-10-16T04:50:58.624Z,2.22
2022-10-16T04:53:27.013Z,2.28
2022-10-16T04:55:55.438Z,1.63
2022-10-16T04:58:23.670Z,2.33
2022-10-16T05:00:52.390Z,4.70
2022-10-16T05:03:22.056Z,2.92
2022-10-16T05:05:51.052Z,2.22
2022-10-16T05:08:19.544Z,1.85
2022-10-16T05:10:48.433Z,2.58
2022-10-16T05:13:16.698Z,2.22
2022-10-16T05:15:50.361Z,2.60
2022-10-16T05:18:19.292Z,1.88
2022-10-16T05:20:49.098Z,1.73
2022-10-16T05:23:17.893Z,1.63
2022-10-16T05:25:54.109Z,1.88
2022-10-16T05:28:23.506Z,3.08
2022-10-16T05:30:51.991Z,6.28
2022-10-16T05:33:22.977Z,4.35
2022-10-16T05:35:52.567Z,4.25
2022-10-16T05:38:21.670Z,2.03
2022-10-16T05:40:54.017Z,1.90
2022-10-16T05:43:22.833Z,3.13
2022-10-16T05:46:03.021Z,4.85
2022-10-16T05:48:31.572Z,3.85
2022-10-16T05:51:02.787Z,4.80
2022-10-16T05:53:33.045Z,3.35
2022-10-16T05:56:01.825Z,5.13
2022-10-16T05:58:32.380Z,6.65
2022-10-16T06:01:02.945Z,6.32
2022-10-16T06:03:31.772Z,4.85
2022-10-16T06:06:01.372Z,6.32
2022-10-16T06:08:30.138Z,2.45
2022-10-16T06:11:05.533Z,2.17
2022-10-16T06:13:34.609Z,11.93
2022-10-16T06:16:04.483Z,9.35
2022-10-16T06:18:33.189Z,5.65
2022-10-16T06:21:12.442Z,4.00
2022-10-16T06:23:41.181Z,13.27
2022-10-16T06:26:10.507Z,24.52
2022-10-16T06:28:39.525Z,9.80
2022-10-16T06:31:09.933Z,7.80
2022-10-16T06:33:39.673Z,6.70
2022-10-16T06:36:10.784Z,7.90
2022-10-16T06:38:40.447Z,8.65
2022-10-16T06:41:09.731Z,19.45
2022-10-16T06:43:38.479Z,6.20
2022-10-16T06:46:08.845Z,5.90
2022-10-16T06:48:38.112Z,2.85
2022-10-16T06:51:11.011Z,3.90
2022-10-16T06:54:01.761Z,3.13
2022-10-16T06:56:32.674Z,3.47
2022-10-16T06:59:02.148Z,5.18
2022-10-16T07:01:30.740Z,3.28
2022-10-16T07:03:59.370Z,3.00
2022-10-16T07:06:32.377Z,3.45
2022-10-16T07:09:04.913Z,3.55
2022-10-16T07:11:33.206Z,4.13
2022-10-16T07:14:02.166Z,4.70
2022-10-16T07:16:32.375Z,5.63
2022-10-16T07:19:03.050Z,4.25
2022-10-16T07:21:36.610Z,6.30
2022-10-16T07:24:07.670Z,4.78
2022-10-16T07:29:05.726Z,4.15
2022-10-16T07:31:34.172Z,8.90
2022-10-16T07:34:02.796Z,15.00
2022-10-16T07:36:32.872Z,10.00
2022-10-16T07:39:01.345Z,7.43
2022-10-16T07:41:30.440Z,5.38
2022-10-16T07:44:01.169Z,7.60
2022-10-16T07:46:30.788Z,7.40
2022-10-16T07:48:59.106Z,3.75
2022-10-16T07:51:28.699Z,6.40
2022-10-16T07:53:58.372Z,5.05
2022-10-16T07:56:27.264Z,6.20
2022-10-16T07:58:57.227Z,5.25
2022-10-16T08:01:25.724Z,3.17
2022-10-16T08:03:54.661Z,2.50
2022-10-16T08:06:27.697Z,6.22
2022-10-16T08:09:00.919Z,4.18
2022-10-16T08:11:29.707Z,5.22
2022-10-16T08:13:58.010Z,3.00
2022-10-16T08:16:26.857Z,2.63
2022-10-16T08:18:55.106Z,3.03
2022-10-16T08:21:24.984Z,4.20
2022-10-16T08:23:58.269Z,3.37
2022-10-16T08:26:29.848Z,5.82
2022-10-16T08:28:58.322Z,3.22
2022-10-16T08:31:29.515Z,4.38
2022-10-16T08:33:58.030Z,3.03
2022-10-16T08:36:26.673Z,2.90
2022-10-16T08:38:55.753Z,4.28
2022-10-16T08:41:38.696Z,3.22
2022-10-16T08:44:37.940Z,6.22
2022-10-16T08:47:15.230Z,3.60
2022-10-16T08:49:55.323Z,3.65
2022-10-16T08:52:24.615Z,3.72
2022-10-16T08:54:56.109Z,4.18
2022-10-16T08:57:28.562Z,3.72
2022-10-16T09:00:02.008Z,4.70
2022-10-16T09:02:35.593Z,4.18
2022-10-16T09:05:25.056Z,4.80
2022-10-16T09:08:05.688Z,5.07
2022-10-16T09:10:44.344Z,8.20
2022-10-16T09:13:23.410Z,4.00
2022-10-16T09:16:00.766Z,7.10
2022-10-16T09:18:34.944Z,5.20
2022-10-16T09:21:11.980Z,4.90
2022-10-16T09:23:41.041Z,7.20
2022-10-16T09:26:15.286Z,4.40
2022-10-16T09:28:45.502Z,5.10
2022-10-16T09:31:19.460Z,4.22
2022-10-16T09:33:54.835Z,6.28
2022-10-16T09:36:25.885Z,5.55
2022-10-16T09:39:06.421Z,5.65
2022-10-16T09:44:17.893Z,4.63
2022-10-16T09:46:46.227Z,4.38
2022-10-16T09:49:24.362Z,5.13
2022-10-16T09:52:04.430Z,6.47
2022-10-16T09:57:09.112Z,4.75
2022-10-16T09:59:48.477Z,5.10
2022-10-16T10:02:18.269Z,3.92
2022-10-16T10:04:52.519Z,4.18
2022-10-16T10:07:26.792Z,4.22
2022-10-16T10:09:57.144Z,4.10
2022-10-16T10:12:28.435Z,4.00
2022-10-16T10:15:00.635Z,3.65
2022-10-16T10:17:30.175Z,5.07
2022-10-16T10:20:01.921Z,6.05
2022-10-16T10:22:33.932Z,4.82
2022-10-16T10:25:32.472Z,5.28
2022-10-16T10:28:40.517Z,3.95
2022-10-16T10:31:17.146Z,4.15
2022-10-16T10:33:50.972Z,4.05
2022-10-16T10:36:35.133Z,5.10
2022-10-16T10:39:12.396Z,4.35
2022-10-16T10:42:11.141Z,3.53
2022-10-16T10:44:54.983Z,4.07
2022-10-16T10:47:40.311Z,5.97
2022-10-16T10:50:18.856Z,4.70
2022-10-16T10:53:00.451Z,4.20
2022-10-16T10:55:39.484Z,8.18
2022-10-16T10:58:38.957Z,4.15
2022-10-16T11:01:13.123Z,3.53
2022-10-16T11:04:13.983Z,3.80
2022-10-16T11:06:45.609Z,3.92
2022-10-16T11:09:19.832Z,4.25
2022-10-16T11:11:52.204Z,3.75
2022-10-16T11:14:24.078Z,5.22
2022-10-16T11:16:58.724Z,3.65
2022-10-16T11:19:40.463Z,3.38
2022-10-16T11:22:17.395Z,6.47
2022-10-16T11:24:51.555Z,23.65
2022-10-16T11:27:28.773Z,3.50
2022-10-16T11:30:03.960Z,4.40
2022-10-16T11:32:40.883Z,3.00
2022-10-16T11:35:25.356Z,3.40
2022-10-16T11:37:58.298Z,3.25
2022-10-16T11:40:34.755Z,2.80
2022-10-16T11:43:11.993Z,7.72
2022-10-16T11:45:44.696Z,2.67
2022-10-16T11:48:22.114Z,2.97
2022-10-16T11:50:56.140Z,2.80
2022-10-16T11:53:33.963Z,3.10
2022-10-16T11:56:06.823Z,3.08
2022-10-16T11:58:40.121Z,3.05
2022-10-16T12:01:20.743Z,10.18
2022-10-16T12:03:58.961Z,3.40
2022-10-16T12:06:35.880Z,3.10
2022-10-16T12:09:05.493Z,3.30
2022-10-16T12:11:41.147Z,2.90
2022-10-16T12:14:23.571Z,3.40
2022-10-16T12:16:57.642Z,3.55
2022-10-16T12:19:29.521Z,3.05
2022-10-16T12:22:02.192Z,2.30
2022-10-16T12:24:40.660Z,2.17
2022-10-16T12:27:26.655Z,2.60
2022-10-16T12:29:59.002Z,2.40
2022-10-16T12:32:48.765Z,2.40
2022-10-16T12:35:21.964Z,2.45
2022-10-16T12:37:53.009Z,2.17
2022-10-16T12:40:31.514Z,2.38
2022-10-16T12:43:00.784Z,3.97
2022-10-16T12:45:32.320Z,2.40
2022-10-16T12:48:02.825Z,2.42
2022-10-16T12:50:36.834Z,2.20
2022-10-16T12:53:21.192Z,2.40
2022-10-16T12:56:00.687Z,2.47
2022-10-16T12:58:51.122Z,2.50
2022-10-16T13:01:39.420Z,2.70
2022-10-16T13:04:45.910Z,4.03
2022-10-16T13:07:32.713Z,3.67
2022-10-16T13:10:16.005Z,2.95
2022-10-16T13:13:12.181Z,2.70
2022-10-16T13:15:53.629Z,2.85
2022-10-16T13:18:31.667Z,5.68
2022-10-16T13:21:16.389Z,5.07
2022-10-16T13:23:55.347Z,3.80
2022-10-16T13:26:38.489Z,2.60
2022-10-16T13:29:14.579Z,2.72
2022-10-16T13:31:44.761Z,2.80
2022-10-16T13:34:19.204Z,2.30
2022-10-16T13:36:51.430Z,2.78
2022-10-16T13:39:25.118Z,2.40
2022-10-16T13:44:51.180Z,2.50
2022-10-16T13:47:21.304Z,2.25
2022-10-16T13:50:01.690Z,3.05
2022-10-16T13:52:32.368Z,2.53
2022-10-16T13:55:02.340Z,2.67
2022-10-16T13:57:33.506Z,2.35
2022-10-16T14:00:19.346Z,3.28
2022-10-16T14:02:54.382Z,3.00
2022-10-16T14:05:23.157Z,2.75
2022-10-16T14:07:53.002Z,2.50
2022-10-16T14:10:27.846Z,2.88
2022-10-16T14:13:03.749Z,2.80
2022-10-16T14:15:34.067Z,2.67
2022-10-16T14:18:02.844Z,3.03
2022-10-16T14:20:34.175Z,3.30
2022-10-16T14:23:04.862Z,2.55
2022-10-16T14:25:34.683Z,2.60
2022-10-16T14:30:36.564Z,2.58
2022-10-16T14:33:06.811Z,3.33
2022-10-16T14:35:37.481Z,2.60
2022-10-16T14:38:07.212Z,3.33
2022-10-16T14:43:07.806Z,2.88
2022-10-16T14:45:38.334Z,2.90
2022-10-16T14:48:19.549Z,2.95
2022-10-16T14:50:49.072Z,3.40
2022-10-16T14:53:17.722Z,3.10
2022-10-16T14:55:46.648Z,3.35
2022-10-16T14:58:20.051Z,3.00
2022-10-16T15:00:48.945Z,2.88
2022-10-16T15:03:17.471Z,3.00
2022-10-16T15:05:46.036Z,3.00
2022-10-16T15:08:14.792Z,3.40
2022-10-16T15:10:45.405Z,4.57
2022-10-16T15:13:15.660Z,5.00
2022-10-16T15:15:47.258Z,3.45
2022-10-16T15:18:21.409Z,3.50
2022-10-16T15:20:51.749Z,3.17
2022-10-16T15:23:22.896Z,3.20
2022-10-16T15:25:52.987Z,3.70
2022-10-16T15:28:24.169Z,95.65
2022-10-16T15:33:25.882Z,59.08
2022-10-16T15:35:55.252Z,13.68
2022-10-16T15:38:25.202Z,10.52
2022-10-16T15:40:53.429Z,8.10
2022-10-16T15:43:22.813Z,21.27
2022-10-16T15:46:03.357Z,15.85
2022-10-16T15:51:20.069Z,13.50
2022-10-16T15:53:49.500Z,10.35
2022-10-16T15:56:17.725Z,11.50
2022-10-16T15:58:46.762Z,15.43
2022-10-16T16:01:16.682Z,37.88
2022-10-16T16:03:46.788Z,73.68
2022-10-16T16:06:16.632Z,32.67
2022-10-16T16:08:47.747Z,12.30
2022-10-16T16:11:17.718Z,10.38
2022-10-16T16:13:46.602Z,8.38
2022-10-16T16:16:18.504Z,4.97
2022-10-16T16:18:49.935Z,14.68
2022-10-16T16:21:18.298Z,8.68
2022-10-16T16:23:46.728Z,5.63
2022-10-16T16:26:17.546Z,3.90
2022-10-16T16:28:46.030Z,7.57
2022-10-16T16:31:16.151Z,3.85
2022-10-16T16:33:44.497Z,5.35
2022-10-16T16:36:15.885Z,4.18
2022-10-16T16:38:44.803Z,4.07
2022-10-16T16:41:14.871Z,7.25
2022-10-16T16:43:43.682Z,5.78
2022-10-16T16:46:13.051Z,26.65
2022-10-16T16:48:43.307Z,19.50
2022-10-16T16:51:16.491Z,23.17
2022-10-16T16:53:45.795Z,22.38
2022-10-16T16:56:15.577Z,7.53
2022-10-16T16:58:46.652Z,5.83
2022-10-16T17:01:19.952Z,4.95
2022-10-16T17:03:52.920Z,4.53
2022-10-16T17:06:23.314Z,5.50
2022-10-16T17:08:52.823Z,8.40
2022-10-16T17:11:24.061Z,7.23
2022-10-16T17:13:56.756Z,18.00
2022-10-16T17:16:28.705Z,18.55
2022-10-16T17:19:01.501Z,6.60
2022-10-16T17:21:30.852Z,6.28
2022-10-16T17:23:59.644Z,9.57
2022-10-16T17:26:29.031Z,6.10
2022-10-16T17:28:59.123Z,5.40
2022-10-16T17:33:59.719Z,5.90
2022-10-16T17:39:01.599Z,4.32
2022-10-16T17:41:30.629Z,7.68
2022-10-16T17:43:59.181Z,6.93
2022-10-16T17:46:27.986Z,10.88
2022-10-16T17:48:57.399Z,7.77
2022-10-16T17:51:32.057Z,18.83
2022-10-16T17:54:02.337Z,13.88
2022-10-16T17:59:02.453Z,6.78
2022-10-16T18:01:32.763Z,5.38
2022-10-16T18:04:05.117Z,14.85
2022-10-16T18:06:35.622Z,10.45
2022-10-16T18:09:06.056Z,6.47
2022-10-16T18:11:34.596Z,9.25
2022-10-16T18:14:03.625Z,8.07
2022-10-16T18:16:32.541Z,6.68
2022-10-16T18:19:01.622Z,5.68
2022-10-16T18:21:30.121Z,7.72
2022-10-16T18:24:01.523Z,9.63
2022-10-16T18:26:30.249Z,7.32
2022-10-16T18:29:00.856Z,8.60
2022-10-16T18:31:29.656Z,13.00
2022-10-16T18:33:58.909Z,11.07
2022-10-16T18:36:29.922Z,8.10
2022-10-16T18:39:01.230Z,9.80
2022-10-16T18:41:29.905Z,9.55
2022-10-16T18:43:58.812Z,12.48
2022-10-16T18:46:28.328Z,7.65
2022-10-16T18:48:58.174Z,9.00
2022-10-16T18:51:28.186Z,16.75
2022-10-16T18:54:00.240Z,6.15
2022-10-16T18:56:31.705Z,5.57
2022-10-16T18:59:01.652Z,13.48
2022-10-16T19:01:31.778Z,21.02
2022-10-16T19:06:30.314Z,12.23
2022-10-16T19:08:59.338Z,14.60
2022-10-16T19:11:29.430Z,18.08
2022-10-16T19:16:30.008Z,16.42
2022-10-16T19:19:00.212Z,14.95
2022-10-16T19:23:59.816Z,23.83
2022-10-16T19:26:31.805Z,17.23
2022-10-16T19:29:04.577Z,18.70
2022-10-16T19:31:34.786Z,15.23
2022-10-16T19:34:06.365Z,12.38
2022-10-16T19:36:36.488Z,8.93
2022-10-16T19:39:07.738Z,12.98
2022-10-16T19:41:38.748Z,35.63
2022-10-16T19:44:08.516Z,34.88
2022-10-16T19:46:37.956Z,23.85
2022-10-16T19:49:09.430Z,23.23
2022-10-16T19:51:38.940Z,17.52
2022-10-16T19:54:08.909Z,21.15
2022-10-16T19:56:39.328Z,26.90
2022-10-16T19:59:09.036Z,19.67
2022-10-16T20:01:37.853Z,12.82
2022-10-16T20:04:06.798Z,19.50
2022-10-16T20:06:35.519Z,13.07
2022-10-16T20:09:03.798Z,11.45
2022-10-16T20:11:34.326Z,11.20
2022-10-16T20:14:04.525Z,8.88
2022-10-16T20:16:33.800Z,13.60
2022-10-16T20:19:02.088Z,10.25
2022-10-16T20:21:32.714Z,7.65
2022-10-16T20:24:02.138Z,8.52
2022-10-16T20:26:30.345Z,9.55
2022-10-16T20:28:59.181Z,7.05
2022-10-16T20:31:30.551Z,6.88
2022-10-16T20:34:02.942Z,8.77
2022-10-16T20:36:31.652Z,9.70
2022-10-16T20:39:00.588Z,6.35
2022-10-16T20:41:28.955Z,8.95
2022-10-16T20:43:57.625Z,8.55
2022-10-16T20:46:29.288Z,5.85
2022-10-16T20:49:06.246Z,22.83
2022-10-16T20:51:40.515Z,24.13
2022-10-16T20:54:09.220Z,13.77
2022-10-16T20:56:38.292Z,14.45
2022-10-16T20:59:07.832Z,16.30
2022-10-16T21:01:38.035Z,23.10
2022-10-16T21:04:11.090Z,10.55
2022-10-16T21:06:41.077Z,7.72
2022-10-16T21:09:10.169Z,6.10
2022-10-16T21:11:39.010Z,8.32
2022-10-16T21:14:09.537Z,6.53
2022-10-16T21:16:39.441Z,8.02
2022-10-16T21:19:08.305Z,7.80
2022-10-16T21:21:38.624Z,9.02
2022-10-16T21:26:43.630Z,8.20
2022-10-16T21:29:12.554Z,9.65
2022-10-16T21:31:42.496Z,8.32
2022-10-16T21:34:11.381Z,8.90
2022-10-16T21:36:42.685Z,10.73
2022-10-16T21:39:17.089Z,7.63
2022-10-16T21:41:48.544Z,6.13
2022-10-16T21:44:20.577Z,14.93
2022-10-16T21:46:52.616Z,13.27
2022-10-16T21:49:21.552Z,21.73
2022-10-16T21:51:51.532Z,7.97
2022-10-16T21:54:23.584Z,7.07
2022-10-16T21:56:52.363Z,7.57
2022-10-16T21:59:21.549Z,7.95
2022-10-16T22:01:53.921Z,8.45
2022-10-16T22:04:22.696Z,8.65
2022-10-16T22:06:50.912Z,8.48
2022-10-16T22:09:19.496Z,8.63
2022-10-16T22:11:47.961Z,7.78
2022-10-16T22:14:18.597Z,7.70
2022-10-16T22:16:47.820Z,8.55
2022-10-16T22:19:19.215Z,6.57
2022-10-16T22:21:49.138Z,9.15
2022-10-16T22:24:17.578Z,5.87
2022-10-16T22:26:46.333Z,9.85
2022-10-16T22:29:16.249Z,10.35
2022-10-16T22:31:45.331Z,11.13
2022-10-16T22:34:15.146Z,15.32
2022-10-16T22:36:45.170Z,10.52
2022-10-16T22:39:13.546Z,7.65
2022-10-16T22:41:42.117Z,7.25
2022-10-16T22:44:13.542Z,11.10
2022-10-16T22:46:42.173Z,9.57
2022-10-16T22:49:10.416Z,10.82
2022-10-16T22:51:39.238Z,7.75
2022-10-16T22:54:09.158Z,9.27
2022-10-16T22:56:37.646Z,7.35
2022-10-16T22:59:06.812Z,8.18
2022-10-16T23:01:37.678Z,8.02
2022-10-16T23:04:06.411Z,8.52
2022-10-16T23:06:36.038Z,8.55
2022-10-16T23:09:04.715Z,8.38
2022-10-16T23:11:34.558Z,6.63
2022-10-16T23:14:03.210Z,4.90
2022-10-16T23:16:31.396Z,7.13
2022-10-16T23:19:00.306Z,6.65
2022-10-16T23:21:28.657Z,8.20
2022-10-16T23:23:57.090Z,9.60
2022-10-16T23:26:27.281Z,7.78
2022-10-16T23:28:59.583Z,9.02
2022-10-16T23:31:28.585Z,11.57
2022-10-16T23:33:57.809Z,6.63
2022-10-16T23:36:26.407Z,11.02
2022-10-16T23:38:55.793Z,7.55
2022-10-16T23:41:24.187Z,15.90
2022-10-16T23:43:52.763Z,14.82
2022-10-16T23:46:22.528Z,12.30
2022-10-16T23:48:51.222Z,8.85
2022-10-16T23:51:19.669Z,9.40
2022-10-16T23:53:48.745Z,10.90
2022-10-16T23:56:17.302Z,7.93
2022-10-16T23:58:46.121Z,9.20
